Time;durP1;ratioP1;P1;durP2;ratioP2;P2;SDS_P1;SDS_P2;PMS_P1;PMS_P2;Temp;Humidity;BMP_temperature;BMP_pressure;BME280_temperature;BME280_humidity;BME280_pressure;Samples;Min_cycle;Max_cycle;Signal;HPM_P1;HPM_P2
2024/02/09 00:00:35;;;;;;;7.43;4.10;;;1.50;99.90;;;;;;5073597;28;20116;-53
2024/02/09 00:03:01;;;;;;;6.32;3.85;;;1.50;99.90;;;;;;5065849;28;20099;-52
2024/02/09 00:05:27;;;;;;;7.20;4.47;;;1.60;99.90;;;;;;5066869;28;20032;-52
2024/02/09 00:07:53;;;;;;;6.28;3.95;;;1.50;99.90;;;;;;5067334;28;20028;-53
2024/02/09 00:10:19;;;;;;;8.52;4.38;;;1.60;99.90;;;;;;5066013;28;20086;-52
2024/02/09 00:12:45;;;;;;;6.88;4.28;;;1.60;99.90;;;;;;5070292;28;20027;-52
2024/02/09 00:15:11;;;;;;;6.65;4.85;;;1.60;99.90;;;;;;5077720;28;20027;-51
2024/02/09 00:17:37;;;;;;;8.05;4.50;;;1.50;99.90;;;;;;5072955;28;20334;-52
2024/02/09 00:20:07;;;;;;;8.52;5.07;;;1.50;99.90;;;;;;5078608;28;20362;-52
2024/02/09 00:22:36;;;;;;;7.60;4.60;;;1.50;99.90;;;;;;5071963;28;20025;-52
2024/02/09 00:25:10;;;;;;;7.93;4.93;;;1.60;99.90;;;;;;5055352;28;20063;-51
2024/02/09 00:27:39;;;;;;;8.95;5.40;;;1.60;99.90;;;;;;5069644;28;20239;-54
2024/02/09 00:30:06;;;;;;;7.25;4.93;;;1.60;99.90;;;;;;5073016;28;20035;-50
2024/02/09 00:32:33;;;;;;;9.00;5.32;;;1.60;99.90;;;;;;5072930;28;20021;-52
2024/02/09 00:34:58;;;;;;;7.78;4.80;;;1.60;99.90;;;;;;5077661;28;20020;-52
2024/02/09 00:37:26;;;;;;;10.57;5.13;;;1.60;99.90;;;;;;5073436;28;20031;-53
2024/02/09 00:39:52;;;;;;;10.02;5.72;;;1.60;99.90;;;;;;5073351;28;20051;-53
2024/02/09 00:42:18;;;;;;;9.40;6.10;;;1.60;99.90;;;;;;5074795;28;20106;-53
2024/02/09 00:44:44;;;;;;;10.65;6.32;;;1.60;99.90;;;;;;5077799;28;20414;-52
2024/02/09 00:47:09;;;;;;;11.05;5.95;;;1.60;99.90;;;;;;5072216;28;20021;-53
2024/02/09 00:49:41;;;;;;;9.00;5.93;;;1.60;99.90;;;;;;5078867;28;20028;-51
2024/02/09 00:52:14;;;;;;;7.40;4.90;;;1.60;99.90;;;;;;5076182;28;20024;-52
2024/02/09 00:54:41;;;;;;;8.85;5.15;;;1.60;99.90;;;;;;5075359;28;20451;-50
2024/02/09 00:57:07;;;;;;;9.15;5.60;;;1.60;99.90;;;;;;5080286;28;20027;-52
2024/02/09 00:59:36;;;;;;;8.50;4.72;;;1.60;99.90;;;;;;5071846;28;20062;-52
2024/02/09 01:02:02;;;;;;;8.85;4.82;;;1.60;99.90;;;;;;5073545;28;20403;-50
2024/02/09 01:04:28;;;;;;;6.63;4.15;;;1.60;99.90;;;;;;5077321;28;20024;-50
2024/02/09 01:06:55;;;;;;;6.75;4.22;;;1.60;99.90;;;;;;5081340;28;20497;-50
2024/02/09 01:09:22;;;;;;;5.47;3.70;;;1.60;99.90;;;;;;5073489;28;20449;-49
2024/02/09 01:11:48;;;;;;;6.13;3.92;;;1.60;99.90;;;;;;5071845;28;20287;-52
2024/02/09 02:46:50;;;;;;;9.57;6.32;;;1.60;99.90;;;;;;5074693;28;20028;-52
2024/02/09 03:05:52;;;;;;;10.00;6.25;;;1.60;99.90;;;;;;5069561;28;20051;-52
2024/02/09 03:08:17;;;;;;;9.45;5.78;;;1.60;99.90;;;;;;5071256;28;20028;-49
2024/02/09 03:10:43;;;;;;;9.63;6.47;;;1.70;99.90;;;;;;5070724;28;20044;-51
2024/02/09 03:13:08;;;;;;;10.02;6.55;;;1.70;99.90;;;;;;5067474;28;20055;-50
2024/02/09 03:15:34;;;;;;;10.70;7.15;;;1.70;99.90;;;;;;5070718;28;20021;-53
2024/02/09 03:18:04;;;;;;;13.82;6.78;;;1.70;99.90;;;;;;5070010;28;20425;-51
2024/02/09 03:20:31;;;;;;;11.95;7.15;;;1.70;99.90;;;;;;5073687;28;20466;-51
2024/02/09 03:22:57;;;;;;;10.63;6.55;;;1.70;99.90;;;;;;5070348;28;20028;-49
2024/02/09 03:25:23;;;;;;;10.38;7.13;;;1.70;99.90;;;;;;5070714;28;20027;-51
2024/02/09 03:27:50;;;;;;;9.48;6.32;;;1.70;99.90;;;;;;5070307;28;20013;-53
2024/02/09 03:30:17;;;;;;;11.45;6.95;;;1.70;99.90;;;;;;5071638;28;20191;-52
2024/02/09 03:32:44;;;;;;;10.38;6.78;;;1.70;99.90;;;;;;5070400;28;20009;-49
2024/02/09 03:35:09;;;;;;;10.95;7.10;;;1.70;99.90;;;;;;5075094;28;20016;-53
2024/02/09 03:37:35;;;;;;;11.15;6.88;;;1.70;99.90;;;;;;5071553;28;20043;-53
2024/02/09 03:40:02;;;;;;;12.05;6.68;;;1.70;99.90;;;;;;5070209;28;20036;-53
2024/02/09 03:42:28;;;;;;;11.27;6.97;;;1.70;99.90;;;;;;5070264;28;20025;-51
2024/02/09 03:44:54;;;;;;;10.77;6.47;;;1.80;99.90;;;;;;5068779;28;20483;-50
2024/02/09 03:47:22;;;;;;;12.57;7.72;;;1.70;99.90;;;;;;5069569;28;20016;-53
2024/02/09 03:49:49;;;;;;;11.45;6.95;;;1.70;99.90;;;;;;5070745;28;20025;-52
2024/02/09 03:52:15;;;;;;;9.25;5.95;;;1.80;99.90;;;;;;5073777;28;20469;-50
2024/02/09 03:54:40;;;;;;;12.00;6.95;;;1.80;99.90;;;;;;5066901;28;20028;-52
2024/02/09 03:57:07;;;;;;;11.40;7.00;;;1.70;99.90;;;;;;5069843;28;20029;-53
2024/02/09 03:59:33;;;;;;;10.55;6.43;;;1.70;99.90;;;;;;5067638;28;20020;-50
2024/02/09 04:02:06;;;;;;;12.95;7.43;;;1.70;99.90;;;;;;5067295;28;20028;-52
2024/02/09 04:04:32;;;;;;;11.70;6.68;;;1.80;99.90;;;;;;5069643;28;20409;-53
2024/02/09 04:06:58;;;;;;;11.27;6.63;;;1.70;99.90;;;;;;5070991;28;20537;-50
2024/02/09 04:09:24;;;;;;;12.00;7.68;;;1.70;99.90;;;;;;5070250;28;20389;-51
2024/02/09 04:11:49;;;;;;;12.27;6.93;;;1.80;99.90;;;;;;5074804;28;20107;-52
2024/02/09 04:14:17;;;;;;;10.95;6.82;;;1.80;99.90;;;;;;5076660;28;20031;-53
2024/02/09 04:16:43;;;;;;;11.20;7.20;;;1.80;99.90;;;;;;5075941;28;20037;-52
2024/02/09 04:19:09;;;;;;;11.60;6.78;;;1.80;99.90;;;;;;5073029;28;20063;-49
2024/02/09 04:21:34;;;;;;;9.85;6.13;;;1.80;99.90;;;;;;5073093;28;20028;-51
2024/02/09 04:24:00;;;;;;;9.13;6.15;;;1.70;99.90;;;;;;5074733;28;20025;-53
2024/02/09 04:26:25;;;;;;;10.77;7.05;;;1.80;99.90;;;;;;5073124;28;20055;-51
2024/02/09 04:28:53;;;;;;;10.00;6.15;;;1.80;99.90;;;;;;5069487;28;20102;-51
2024/02/09 04:31:19;;;;;;;9.65;6.32;;;1.80;99.90;;;;;;5075275;28;20016;-52
2024/02/09 04:33:45;;;;;;;9.68;6.28;;;1.70;99.90;;;;;;5070957;28;20024;-53
2024/02/09 04:36:10;;;;;;;10.93;6.63;;;1.70;99.90;;;;;;5076875;28;20469;-53
2024/02/09 04:38:40;;;;;;;12.68;7.35;;;1.70;99.90;;;;;;5070834;28;20036;-52
2024/02/09 04:41:06;;;;;;;11.13;6.75;;;1.70;99.90;;;;;;5074585;28;20496;-53
2024/02/09 04:43:32;;;;;;;11.27;7.18;;;1.70;99.90;;;;;;5070307;28;20025;-52
2024/02/09 04:45:58;;;;;;;12.30;7.25;;;1.80;99.90;;;;;;5072240;28;20028;-53
2024/02/09 04:48:23;;;;;;;13.57;7.82;;;1.80;99.90;;;;;;5068000;28;20021;-51
2024/02/09 04:50:49;;;;;;;11.38;7.20;;;1.80;99.90;;;;;;5072218;28;20074;-50
2024/02/09 04:53:15;;;;;;;10.15;6.70;;;1.80;99.90;;;;;;5070080;28;20024;-52
2024/02/09 04:55:41;;;;;;;10.45;7.05;;;1.80;99.90;;;;;;5072370;28;20019;-53
2024/02/09 04:58:07;;;;;;;10.90;6.97;;;1.80;99.90;;;;;;5073696;28;20091;-53
2024/02/09 05:00:33;;;;;;;11.27;7.40;;;1.80;99.90;;;;;;5073828;28;20066;-52
2024/02/09 05:02:59;;;;;;;11.40;7.18;;;1.80;99.90;;;;;;5071796;28;20041;-52
2024/02/09 05:05:26;;;;;;;10.98;6.95;;;1.80;99.90;;;;;;5071645;28;20143;-52
2024/02/09 05:07:53;;;;;;;10.65;7.15;;;1.80;99.90;;;;;;5073885;28;20043;-53
2024/02/09 05:10:20;;;;;;;12.57;7.68;;;1.80;99.90;;;;;;5074118;28;20024;-52
2024/02/09 05:12:46;;;;;;;11.75;7.35;;;1.80;99.90;;;;;;5069638;28;20439;-50
2024/02/09 05:15:12;;;;;;;12.68;7.95;;;1.80;99.90;;;;;;5069874;28;20091;-52
2024/02/09 05:17:39;;;;;;;14.10;8.07;;;1.80;99.90;;;;;;5072992;28;20020;-52
2024/02/09 05:20:06;;;;;;;13.32;7.70;;;1.80;99.90;;;;;;5071634;28;20048;-52
2024/02/09 05:22:31;;;;;;;13.73;8.18;;;1.80;99.90;;;;;;5071181;28;20096;-52
2024/02/09 05:24:57;;;;;;;11.80;7.50;;;1.80;99.90;;;;;;5070923;28;20119;-53
2024/02/09 05:27:22;;;;;;;14.20;8.32;;;1.80;99.90;;;;;;5071480;28;20095;-50
2024/02/09 05:29:48;;;;;;;13.38;7.97;;;1.80;99.90;;;;;;5070992;28;20056;-51
2024/02/09 05:32:14;;;;;;;14.35;8.30;;;1.80;99.90;;;;;;5071365;28;20020;-52
2024/02/09 05:34:44;;;;;;;14.02;8.65;;;1.80;99.90;;;;;;5067862;28;20477;-50
2024/02/09 05:37:12;;;;;;;13.80;8.38;;;1.80;99.90;;;;;;5071823;28;20020;-49
2024/02/09 05:39:41;;;;;;;14.10;8.15;;;1.90;99.90;;;;;;5070998;28;20113;-52
2024/02/09 05:42:07;;;;;;;12.57;8.52;;;1.90;99.90;;;;;;5067984;28;20033;-52
2024/02/09 05:44:33;;;;;;;13.13;8.38;;;1.90;99.90;;;;;;5069075;28;20409;-52
2024/02/09 05:47:00;;;;;;;13.43;8.07;;;1.90;99.90;;;;;;5069071;28;20024;-52
2024/02/09 05:49:26;;;;;;;14.63;8.57;;;1.90;99.90;;;;;;5068012;28;20024;-52
2024/02/09 05:51:52;;;;;;;13.43;8.18;;;1.90;99.90;;;;;;5070390;28;20389;-51
2024/02/09 05:54:18;;;;;;;14.55;8.82;;;1.90;99.90;;;;;;5070028;28;20107;-52
2024/02/09 05:56:46;;;;;;;14.80;9.30;;;1.90;99.90;;;;;;5070098;28;20442;-51
2024/02/09 05:59:14;;;;;;;15.75;9.38;;;2.00;99.90;;;;;;5067484;28;20044;-49
2024/02/09 06:01:39;;;;;;;16.67;9.20;;;1.90;99.90;;;;;;5070264;28;20271;-51
2024/02/09 06:04:05;;;;;;;15.68;9.18;;;2.00;99.90;;;;;;5069439;28;20108;-50
2024/02/09 06:06:31;;;;;;;16.63;8.95;;;2.00;99.90;;;;;;5071141;28;20023;-49
2024/02/09 06:08:58;;;;;;;15.48;9.15;;;2.00;99.90;;;;;;5070923;28;20056;-51
2024/02/09 06:11:24;;;;;;;15.57;9.35;;;2.00;99.90;;;;;;5062772;28;20013;-48
2024/02/09 06:13:50;;;;;;;15.63;9.15;;;2.00;99.90;;;;;;5061203;28;20025;-52
2024/02/09 06:16:16;;;;;;;17.40;9.95;;;2.00;99.90;;;;;;5071736;28;20518;-52
2024/02/09 06:18:44;;;;;;;17.35;9.98;;;2.00;99.90;;;;;;5068094;28;20055;-49
2024/02/09 06:21:10;;;;;;;16.38;9.55;;;2.00;99.90;;;;;;5070809;28;20025;-51
2024/02/09 06:23:39;;;;;;;18.20;10.27;;;2.00;99.90;;;;;;5069028;28;20025;-51
2024/02/09 06:26:04;;;;;;;19.48;10.63;;;2.00;99.90;;;;;;5068382;28;20159;-50
2024/02/09 06:28:31;;;;;;;20.88;11.02;;;2.00;99.90;;;;;;5068035;28;20103;-48
2024/02/09 06:30:57;;;;;;;19.33;10.93;;;2.10;99.90;;;;;;5068878;28;20021;-48
2024/02/09 06:33:22;;;;;;;17.58;10.45;;;2.00;99.90;;;;;;5068719;28;20275;-51
2024/02/09 06:35:48;;;;;;;18.33;10.00;;;2.00;99.90;;;;;;5068083;28;20527;-52
2024/02/09 06:38:17;;;;;;;17.73;10.95;;;2.00;99.90;;;;;;5069749;28;20500;-49
2024/02/09 06:40:42;;;;;;;16.83;9.95;;;2.10;99.90;;;;;;5069015;28;20020;-52
2024/02/09 06:43:08;;;;;;;18.95;10.07;;;2.10;99.90;;;;;;5069627;28;20501;-52
2024/02/09 06:45:36;;;;;;;18.42;10.27;;;2.10;99.90;;;;;;5069811;28;20027;-50
2024/02/09 06:48:03;;;;;;;19.88;10.40;;;2.10;99.90;;;;;;5068914;28;20439;-51
2024/02/09 06:50:29;;;;;;;18.23;9.60;;;2.10;99.90;;;;;;5069321;28;20489;-49
2024/02/09 06:52:55;;;;;;;15.85;8.93;;;2.20;99.90;;;;;;5069449;28;20024;-52
2024/02/09 06:55:22;;;;;;;16.50;9.57;;;2.20;99.90;;;;;;5068220;28;20031;-51
2024/02/09 06:57:48;;;;;;;16.90;9.68;;;2.20;99.90;;;;;;5068376;28;20115;-49
2024/02/09 07:00:15;;;;;;;15.52;9.30;;;2.20;99.90;;;;;;5068948;28;20032;-50
2024/02/09 07:02:41;;;;;;;14.75;8.60;;;2.20;99.90;;;;;;5069133;28;20048;-49
2024/02/09 07:05:10;;;;;;;14.50;8.38;;;2.20;99.90;;;;;;5069278;28;20119;-50
2024/02/09 07:07:43;;;;;;;18.00;9.10;;;2.20;99.90;;;;;;5066913;28;20099;-51
2024/02/09 07:10:13;;;;;;;14.85;8.35;;;2.20;99.90;;;;;;5068514;28;20029;-46
2024/02/09 07:12:39;;;;;;;15.98;9.30;;;2.20;99.90;;;;;;5068993;28;20036;-48
2024/02/09 07:15:05;;;;;;;13.55;8.27;;;2.20;99.90;;;;;;5068351;28;20453;-46
2024/02/09 07:17:30;;;;;;;14.85;8.75;;;2.20;99.90;;;;;;5068828;28;20023;-47
2024/02/09 07:19:56;;;;;;;15.40;8.70;;;2.20;99.90;;;;;;5068137;28;20115;-46
2024/02/09 07:22:21;;;;;;;17.10;9.77;;;2.20;99.90;;;;;;5066683;28;20017;-46
2024/02/09 07:24:47;;;;;;;15.57;8.13;;;2.20;99.90;;;;;;5067910;28;20492;-46
2024/02/09 07:27:13;;;;;;;16.20;9.15;;;2.30;99.90;;;;;;5068089;28;20028;-49
2024/02/09 07:29:39;;;;;;;16.50;9.25;;;2.30;99.90;;;;;;5067582;28;20020;-47
2024/02/09 07:32:07;;;;;;;18.92;10.38;;;2.30;99.90;;;;;;5067536;28;20386;-47
2024/02/09 07:34:33;;;;;;;16.05;9.40;;;2.30;99.90;;;;;;5067515;28;20100;-46
2024/02/09 07:36:58;;;;;;;16.83;9.50;;;2.30;99.90;;;;;;5068300;28;20107;-47
2024/02/09 07:39:24;;;;;;;18.23;10.00;;;2.40;99.90;;;;;;5066701;28;20036;-48
2024/02/09 07:41:49;;;;;;;18.45;9.98;;;2.40;99.90;;;;;;5069270;28;20033;-47
2024/02/09 07:44:15;;;;;;;17.75;10.35;;;2.40;99.90;;;;;;5071426;28;20446;-48
2024/02/09 07:46:40;;;;;;;17.05;9.43;;;2.40;99.90;;;;;;5071345;28;20107;-47
2024/02/09 07:49:06;;;;;;;16.70;9.50;;;2.40;99.90;;;;;;5071280;28;20028;-46
2024/02/09 07:51:32;;;;;;;16.95;10.25;;;2.40;99.90;;;;;;5071770;28;20361;-46
2024/02/09 07:53:59;;;;;;;18.50;10.85;;;2.40;99.90;;;;;;5071441;28;20044;-47
2024/02/09 07:56:24;;;;;;;17.92;10.73;;;2.40;99.90;;;;;;5071418;28;20397;-48
2024/02/09 07:58:53;;;;;;;17.27;9.90;;;2.50;99.90;;;;;;5069947;28;20028;-50
2024/02/09 08:01:22;;;;;;;18.83;10.63;;;2.50;99.90;;;;;;5071291;28;20051;-48
2024/02/09 08:03:48;;;;;;;22.02;11.38;;;2.50;99.90;;;;;;5076475;28;20020;-47
2024/02/09 08:06:14;;;;;;;19.10;10.68;;;2.50;99.90;;;;;;5091610;28;20032;-46
2024/02/09 08:08:39;;;;;;;17.67;9.90;;;2.50;99.90;;;;;;5091531;28;20032;-50
2024/02/09 08:11:05;;;;;;;20.98;10.90;;;2.60;99.90;;;;;;5090025;28;20021;-46
2024/02/09 08:13:30;;;;;;;19.15;10.02;;;2.60;99.90;;;;;;5070668;28;20027;-49
2024/02/09 08:15:56;;;;;;;21.83;10.38;;;2.60;99.90;;;;;;5071311;28;20127;-50
2024/02/09 08:18:22;;;;;;;19.90;10.50;;;2.60;99.90;;;;;;5082298;28;20633;-45
2024/02/09 08:20:48;;;;;;;20.98;11.07;;;2.60;99.90;;;;;;5090843;28;20028;-47
2024/02/09 08:23:14;;;;;;;19.33;10.38;;;2.60;99.90;;;;;;5088236;28;20231;-50
2024/02/09 08:25:39;;;;;;;18.30;10.50;;;2.70;99.90;;;;;;5079049;28;20534;-45
2024/02/09 08:28:05;;;;;;;19.27;9.70;;;2.70;99.90;;;;;;5079200;28;20222;-46
2024/02/09 08:30:30;;;;;;;18.88;10.57;;;2.70;99.90;;;;;;5082394;28;20032;-46
2024/02/09 08:32:56;;;;;;;18.30;10.23;;;2.70;99.90;;;;;;5090097;28;20020;-46
2024/02/09 08:35:22;;;;;;;20.38;11.20;;;2.70;99.90;;;;;;5073721;28;20103;-50
2024/02/09 08:37:47;;;;;;;18.52;9.50;;;2.70;99.90;;;;;;5090083;28;20048;-47
2024/02/09 08:40:13;;;;;;;17.60;10.60;;;2.70;99.90;;;;;;5089172;28;20043;-48
2024/02/09 08:42:39;;;;;;;19.00;10.55;;;2.70;99.90;;;;;;5090261;28;20400;-50
2024/02/09 08:45:05;;;;;;;20.08;10.95;;;2.80;99.90;;;;;;5087577;28;20034;-48
2024/02/09 08:47:31;;;;;;;18.83;10.15;;;2.80;99.90;;;;;;5070414;28;20029;-47
2024/02/09 08:49:56;;;;;;;19.17;10.02;;;2.90;99.90;;;;;;5070072;28;20067;-46
2024/02/09 08:52:22;;;;;;;17.95;10.40;;;2.90;99.90;;;;;;5076060;28;20474;-46
2024/02/09 08:54:47;;;;;;;19.65;10.13;;;3.00;99.90;;;;;;5075900;28;20260;-45
2024/02/09 08:57:14;;;;;;;22.25;10.18;;;3.10;99.90;;;;;;5079982;28;20035;-49
2024/02/09 08:59:40;;;;;;;18.40;10.15;;;3.10;99.90;;;;;;5075876;28;20032;-45
2024/02/09 09:02:06;;;;;;;17.92;10.20;;;3.10;99.90;;;;;;5080246;28;20586;-46
2024/02/09 09:04:33;;;;;;;20.98;11.52;;;3.20;99.90;;;;;;5081400;28;20016;-45
2024/02/09 09:06:59;;;;;;;20.23;11.20;;;3.20;99.90;;;;;;5089097;28;20047;-45
2024/02/09 09:09:26;;;;;;;19.02;10.52;;;3.20;99.90;;;;;;5077300;28;20020;-47
2024/02/09 09:11:55;;;;;;;16.02;9.48;;;3.30;99.90;;;;;;5075228;28;20028;-46
2024/02/09 09:14:21;;;;;;;16.95;9.45;;;3.30;99.90;;;;;;5070597;28;20032;-46
2024/02/09 09:16:46;;;;;;;19.90;10.55;;;3.40;99.90;;;;;;5075571;28;20051;-44
2024/02/09 09:19:14;;;;;;;19.08;10.50;;;3.50;99.90;;;;;;5078059;28;20113;-45
2024/02/09 09:21:41;;;;;;;19.10;9.93;;;3.60;99.90;;;;;;5088573;28;20019;-45
2024/02/09 09:24:10;;;;;;;19.45;10.55;;;3.60;99.90;;;;;;5075794;28;20024;-46
2024/02/09 09:26:36;;;;;;;17.42;10.02;;;3.60;99.90;;;;;;5071172;28;20020;-47
2024/02/09 09:29:02;;;;;;;22.00;10.93;;;3.60;99.90;;;;;;5069549;28;20043;-47
2024/02/09 09:31:29;;;;;;;21.42;11.43;;;3.60;99.90;;;;;;5079935;28;20027;-44
2024/02/09 09:33:58;;;;;;;20.70;10.85;;;3.60;99.90;;;;;;5066999;28;20470;-48
2024/02/09 09:36:26;;;;;;;17.05;9.98;;;3.60;99.90;;;;;;5069196;28;20086;-47
2024/02/09 09:38:52;;;;;;;17.73;9.65;;;3.70;99.90;;;;;;5070128;28;20032;-44
2024/02/09 09:41:19;;;;;;;19.60;10.68;;;3.70;99.90;;;;;;5070981;28;20389;-45
2024/02/09 09:43:47;;;;;;;22.23;12.23;;;3.70;99.90;;;;;;5068819;28;20397;-46
2024/02/09 09:46:12;;;;;;;22.50;11.43;;;3.80;99.90;;;;;;5069541;28;20028;-49
2024/02/09 09:48:43;;;;;;;21.95;11.15;;;3.90;99.90;;;;;;5072107;28;20032;-48
2024/02/09 09:51:10;;;;;;;25.63;12.02;;;4.00;99.90;;;;;;5071012;28;20394;-48
2024/02/09 09:53:42;;;;;;;17.80;10.35;;;4.10;99.90;;;;;;5069627;28;20024;-47
2024/02/09 09:56:09;;;;;;;20.00;10.15;;;4.20;99.90;;;;;;5076122;28;20016;-46
2024/02/09 09:58:36;;;;;;;19.77;10.75;;;4.30;99.90;;;;;;5072966;28;20102;-48
2024/02/09 10:01:08;;;;;;;19.42;11.05;;;4.30;99.90;;;;;;5086280;28;20131;-46
2024/02/09 10:03:36;;;;;;;17.75;10.07;;;4.30;99.90;;;;;;5075782;28;20013;-46
2024/02/09 10:06:02;;;;;;;19.15;10.77;;;4.30;99.90;;;;;;5075207;28;20052;-46
2024/02/09 10:08:28;;;;;;;18.48;10.63;;;4.40;99.90;;;;;;5082940;28;20432;-45
2024/02/09 10:10:57;;;;;;;17.67;10.63;;;4.50;99.90;;;;;;5069008;28;20029;-46
2024/02/09 10:13:26;;;;;;;20.73;10.95;;;4.50;99.90;;;;;;5075632;28;20027;-45
2024/02/09 10:15:52;;;;;;;19.30;11.18;;;4.50;99.90;;;;;;5074741;28;20043;-46
2024/02/09 10:18:18;;;;;;;17.98;10.85;;;4.50;99.90;;;;;;5083904;28;20228;-46
2024/02/09 10:20:47;;;;;;;17.65;10.13;;;4.60;99.90;;;;;;5080753;28;20393;-46
2024/02/09 10:23:16;;;;;;;16.25;9.43;;;4.60;99.90;;;;;;5077543;28;20024;-47
2024/02/09 10:25:43;;;;;;;15.80;9.63;;;4.70;99.90;;;;;;5072351;28;20525;-48
2024/02/09 10:28:13;;;;;;;17.95;10.30;;;4.70;99.90;;;;;;5069894;28;20024;-48
2024/02/09 10:30:39;;;;;;;21.25;12.63;;;4.80;99.90;;;;;;5065048;28;20126;-48
2024/02/09 10:33:10;;;;;;;19.30;11.50;;;4.80;99.90;;;;;;5077794;28;20020;-46
2024/02/09 10:35:36;;;;;;;18.13;10.95;;;4.80;99.90;;;;;;5067965;28;20024;-47
2024/02/09 10:38:02;;;;;;;17.05;9.73;;;4.90;99.90;;;;;;5075120;28;20024;-46
2024/02/09 10:40:28;;;;;;;18.90;10.25;;;5.00;99.90;;;;;;5077097;28;20059;-47
2024/02/09 10:42:54;;;;;;;16.90;10.45;;;5.10;99.90;;;;;;5070847;28;20089;-46
2024/02/09 10:45:20;;;;;;;22.90;12.55;;;5.10;99.90;;;;;;5082626;28;20020;-48
2024/02/09 10:47:54;;;;;;;17.58;10.43;;;5.20;99.90;;;;;;5072514;28;20024;-48
2024/02/09 10:50:20;;;;;;;16.35;10.55;;;5.20;99.90;;;;;;5074425;28;20045;-47
2024/02/09 10:52:50;;;;;;;21.77;11.48;;;5.30;99.90;;;;;;5076677;28;20197;-47
2024/02/09 10:55:22;;;;;;;14.80;9.27;;;5.30;99.90;;;;;;5081998;28;20060;-49
2024/02/09 10:57:51;;;;;;;25.20;11.73;;;5.40;99.90;;;;;;5074532;28;20374;-45
2024/02/09 11:00:17;;;;;;;16.20;10.30;;;5.40;99.90;;;;;;5068526;28;20328;-46
2024/02/09 11:02:43;;;;;;;18.10;11.07;;;5.50;99.90;;;;;;5079889;28;20410;-47
2024/02/09 11:05:16;;;;;;;18.48;10.85;;;5.60;99.90;;;;;;5072886;28;20020;-50
2024/02/09 11:07:45;;;;;;;17.45;11.07;;;5.60;99.90;;;;;;5068979;28;20038;-48
2024/02/09 11:10:15;;;;;;;16.58;10.75;;;5.70;99.90;;;;;;5081162;28;20028;-46
2024/02/09 11:12:40;;;;;;;18.02;10.88;;;5.80;99.90;;;;;;5071444;28;20447;-47
2024/02/09 11:15:15;;;;;;;21.67;11.98;;;5.90;99.90;;;;;;5082796;28;20091;-47
2024/02/09 11:17:49;;;;;;;18.55;10.50;;;5.90;99.90;;;;;;5060263;28;20031;-47
2024/02/09 11:20:15;;;;;;;20.38;11.98;;;5.90;99.90;;;;;;5073972;28;20056;-48
2024/02/09 11:22:47;;;;;;;17.10;11.35;;;5.80;99.90;;;;;;5071382;28;20052;-46
2024/02/09 11:25:14;;;;;;;19.70;11.93;;;5.80;99.90;;;;;;5069455;28;20119;-49
2024/02/09 11:27:47;;;;;;;19.48;11.07;;;5.80;99.90;;;;;;5068395;28;20021;-49
2024/02/09 11:30:13;;;;;;;15.27;10.52;;;5.80;99.90;;;;;;5067406;28;20453;-47
2024/02/09 11:32:39;;;;;;;19.98;12.77;;;5.70;99.90;;;;;;5082944;28;20095;-50
2024/02/09 11:35:05;;;;;;;22.27;12.43;;;5.70;99.90;;;;;;5076477;28;20116;-50
2024/02/09 11:37:30;;;;;;;18.67;11.75;;;5.60;99.90;;;;;;5075702;28;20031;-46
2024/02/09 11:39:56;;;;;;;20.85;10.70;;;5.60;99.90;;;;;;5071634;28;20076;-49
2024/02/09 11:42:22;;;;;;;19.85;11.27;;;5.60;99.90;;;;;;5073599;28;20033;-47
2024/02/09 11:44:47;;;;;;;20.20;12.23;;;5.70;99.90;;;;;;5071421;28;20032;-46
2024/02/09 11:47:13;;;;;;;20.67;11.30;;;5.70;99.90;;;;;;5068767;28;20071;-46
2024/02/09 11:49:42;;;;;;;20.15;11.80;;;5.70;99.90;;;;;;5071354;28;20021;-47
2024/02/09 11:52:10;;;;;;;20.02;12.20;;;5.80;99.90;;;;;;5072939;28;20025;-46
2024/02/09 11:54:35;;;;;;;22.20;13.32;;;5.80;99.90;;;;;;5067237;28;20048;-46
2024/02/09 11:57:01;;;;;;;22.17;13.07;;;5.90;99.90;;;;;;5065652;28;20178;-46
2024/02/09 11:59:29;;;;;;;19.98;12.43;;;6.00;99.90;;;;;;5068527;28;20016;-46
2024/02/09 12:01:55;;;;;;;19.45;12.70;;;6.20;99.90;;;;;;5066938;28;20016;-46
2024/02/09 12:04:21;;;;;;;23.50;13.70;;;6.20;99.90;;;;;;5071045;28;20478;-49
2024/02/09 12:06:47;;;;;;;21.90;13.02;;;6.30;99.90;;;;;;5072799;28;20119;-47
2024/02/09 12:09:15;;;;;;;21.10;13.13;;;6.40;99.90;;;;;;5067139;28;20016;-47
2024/02/09 12:11:42;;;;;;;20.75;11.63;;;6.50;99.90;;;;;;5066970;28;20099;-46
2024/02/09 12:14:07;;;;;;;22.50;12.40;;;6.70;99.90;;;;;;5078316;28;20032;-46
2024/02/09 12:16:33;;;;;;;25.38;14.00;;;6.80;99.90;;;;;;5074848;28;20031;-46
2024/02/09 12:18:59;;;;;;;21.25;12.38;;;7.10;99.90;;;;;;5082133;28;20032;-47
2024/02/09 12:21:25;;;;;;;21.13;12.70;;;7.50;99.90;;;;;;5064517;28;20083;-47
2024/02/09 12:23:52;;;;;;;21.85;13.05;;;7.80;99.90;;;;;;5076855;28;20532;-47
2024/02/09 12:26:21;;;;;;;22.33;12.60;;;8.00;99.90;;;;;;5073518;28;20064;-47
2024/02/09 12:28:48;;;;;;;21.90;13.55;;;8.10;99.90;;;;;;5069802;28;20416;-46
2024/02/09 12:31:18;;;;;;;22.30;12.05;;;8.20;99.90;;;;;;5081648;28;20025;-46
2024/02/09 12:33:47;;;;;;;;;;;8.20;99.90;;;;;;5079721;28;20106;-49
2024/02/09 12:36:14;;;;;;;18.20;11.18;;;8.30;99.90;;;;;;5081732;28;19987;-47
2024/02/09 12:38:40;;;;;;;18.65;11.70;;;8.30;99.90;;;;;;5075475;28;20553;-47
2024/02/09 12:41:07;;;;;;;19.30;13.18;;;8.50;99.90;;;;;;5075896;28;20111;-46
2024/02/09 12:43:33;;;;;;;18.98;12.60;;;8.80;99.90;;;;;;5083294;28;20165;-47
2024/02/09 12:46:00;;;;;;;21.23;14.55;;;9.30;99.90;;;;;;5083618;28;20028;-49
2024/02/09 12:48:28;;;;;;;22.25;13.07;;;9.70;99.90;;;;;;5073591;28;20509;-50
2024/02/09 12:50:54;;;;;;;15.43;10.82;;;10.20;99.90;;;;;;5077873;28;20365;-47
2024/02/09 12:53:20;;;;;;;14.27;9.95;;;10.40;99.90;;;;;;5069268;28;20029;-47
2024/02/09 12:55:46;;;;;;;15.57;10.60;;;10.50;99.90;;;;;;5067980;28;20113;-48
2024/02/09 12:58:12;;;;;;;13.85;10.48;;;10.60;99.90;;;;;;5080175;28;20507;-46
2024/02/09 13:00:38;;;;;;;15.38;10.43;;;10.60;99.90;;;;;;5069946;28;20497;-47
2024/02/09 13:03:05;;;;;;;15.23;11.15;;;10.50;99.90;;;;;;5074972;28;20020;-46
2024/02/09 13:05:30;;;;;;;17.55;11.68;;;10.50;99.90;;;;;;5071457;28;20031;-46
2024/02/09 13:07:57;;;;;;;13.32;10.02;;;10.50;99.90;;;;;;5077761;28;20025;-47
2024/02/09 13:10:23;;;;;;;14.40;10.50;;;10.50;99.90;;;;;;5079116;28;20028;-47
2024/02/09 13:12:48;;;;;;;15.07;10.38;;;10.50;99.90;;;;;;5078442;28;20442;-49
2024/02/09 13:15:15;;;;;;;17.60;11.45;;;10.50;99.90;;;;;;5081411;28;20024;-46
2024/02/09 13:17:41;;;;;;;18.15;11.73;;;10.50;99.90;;;;;;5081814;28;20085;-47
2024/02/09 13:20:08;;;;;;;13.95;9.77;;;10.40;99.90;;;;;;5077316;28;20032;-47
2024/02/09 13:22:37;;;;;;;15.57;10.57;;;10.40;99.90;;;;;;5068866;28;20035;-47
2024/02/09 13:25:04;;;;;;;16.85;10.70;;;10.30;99.90;;;;;;5081702;28;20059;-47
2024/02/09 13:27:30;;;;;;;18.02;11.52;;;10.40;99.90;;;;;;5074672;28;20052;-48
2024/02/09 13:29:57;;;;;;;13.85;10.05;;;10.30;99.90;;;;;;5078095;28;20035;-48
2024/02/09 13:32:24;;;;;;;17.48;12.05;;;10.20;99.90;;;;;;5078928;28;20219;-49
2024/02/09 13:34:50;;;;;;;17.33;11.85;;;10.30;99.90;;;;;;5079623;28;20024;-47
2024/02/09 13:37:15;;;;;;;18.23;11.35;;;10.20;99.90;;;;;;5079240;28;20020;-51
2024/02/09 13:39:41;;;;;;;15.70;10.25;;;10.20;99.90;;;;;;5079116;28;20043;-51
2024/02/09 13:42:06;;;;;;;16.15;11.18;;;10.10;99.90;;;;;;5080262;28;20273;-48
2024/02/09 13:44:33;;;;;;;15.65;11.13;;;10.10;99.90;;;;;;5076171;28;20492;-47
2024/02/09 13:47:00;;;;;;;19.60;12.45;;;10.10;99.90;;;;;;5081340;28;20126;-50
2024/02/09 13:49:25;;;;;;;17.00;11.80;;;10.20;99.90;;;;;;5081052;28;20146;-51
2024/02/09 13:51:52;;;;;;;18.58;11.52;;;10.20;99.90;;;;;;5079792;28;20107;-50
2024/02/09 13:54:17;;;;;;;16.25;11.13;;;10.30;99.90;;;;;;5077721;28;20435;-48
2024/02/09 13:56:44;;;;;;;18.90;12.13;;;10.40;99.90;;;;;;5076735;28;20078;-47
2024/02/09 13:59:10;;;;;;;15.05;10.60;;;10.40;99.90;;;;;;5076666;28;20019;-49
2024/02/09 14:01:36;;;;;;;16.05;10.10;;;10.30;99.90;;;;;;5073143;28;20020;-51
2024/02/09 14:04:05;;;;;;;16.00;10.13;;;10.30;99.90;;;;;;5075431;28;20023;-49
2024/02/09 14:06:30;;;;;;;20.50;11.45;;;10.30;99.90;;;;;;5076461;28;20012;-49
2024/02/09 14:08:56;;;;;;;18.88;10.95;;;10.20;99.90;;;;;;5078907;28;20077;-47
2024/02/09 14:11:23;;;;;;;14.15;9.57;;;10.00;99.90;;;;;;5076001;28;20503;-47
2024/02/09 14:13:50;;;;;;;17.00;8.82;;;10.10;99.90;;;;;;5073720;28;20139;-48
2024/02/09 14:16:16;;;;;;;14.32;7.93;;;10.10;99.90;;;;;;5073662;28;20110;-47
2024/02/09 14:18:42;;;;;;;13.63;7.30;;;10.30;99.90;;;;;;5071922;28;20025;-47
2024/02/09 14:21:07;;;;;;;13.00;6.93;;;10.40;99.90;;;;;;5072190;28;20356;-48
2024/02/09 14:23:33;;;;;;;12.40;5.85;;;10.50;99.90;;;;;;5072216;28;20016;-48
2024/02/09 14:25:59;;;;;;;10.80;6.00;;;10.60;99.90;;;;;;5068414;28;20259;-49
2024/02/09 14:28:25;;;;;;;13.55;6.10;;;10.70;99.90;;;;;;5075771;28;20025;-48